createdAt,value
2023-04-14T00:01:38.421Z,88.98
2023-04-14T00:04:07.930Z,88.93
2023-04-14T00:06:39.718Z,89.08
2023-04-14T00:09:12.767Z,89.08
2023-04-14T00:11:42.457Z,89.16
2023-04-14T00:14:10.946Z,89.25
2023-04-14T00:16:40.959Z,89.63
2023-04-14T00:19:12.093Z,89.67
2023-04-14T00:21:40.644Z,90.00
2023-04-14T00:24:11.499Z,90.17
2023-04-14T00:26:40.046Z,90.25
2023-04-14T00:29:08.690Z,90.29
2023-04-14T00:31:37.442Z,90.13
2023-04-14T00:34:06.786Z,90.02
2023-04-14T00:36:35.364Z,89.83
2023-04-14T00:39:05.859Z,89.60
2023-04-14T00:41:35.213Z,89.25
2023-04-14T00:44:05.012Z,89.11
2023-04-14T00:46:33.888Z,88.77
2023-04-14T00:49:02.839Z,88.86
2023-04-14T00:51:32.511Z,88.85
2023-04-14T00:54:03.468Z,88.87
2023-04-14T00:56:32.523Z,88.89
2023-04-14T00:59:09.957Z,88.80
2023-04-14T01:01:39.011Z,88.96
2023-04-14T01:04:09.124Z,88.91
2023-04-14T01:06:37.912Z,88.74
2023-04-14T01:09:06.747Z,88.78
2023-04-14T01:12:02.964Z,89.06
2023-04-14T01:14:44.540Z,89.08
2023-04-14T01:17:36.385Z,89.37
2023-04-14T01:20:10.622Z,89.47
2023-04-14T01:22:54.752Z,89.32
2023-04-14T01:26:15.032Z,89.47
2023-04-14T01:29:02.997Z,89.64
2023-04-14T01:31:41.802Z,89.61
2023-04-14T01:34:13.355Z,89.56
2023-04-14T01:37:03.072Z,89.73
2023-04-14T01:39:35.378Z,89.80
2023-04-14T01:42:06.844Z,90.09
2023-04-14T01:44:36.658Z,89.95
2023-04-14T01:47:10.152Z,90.11
2023-04-14T01:49:38.864Z,90.44
2023-04-14T01:52:09.289Z,90.54
2023-04-14T01:54:39.959Z,90.77
2023-04-14T01:57:11.483Z,90.90
2023-04-14T01:59:43.344Z,91.00
2023-04-14T02:02:13.122Z,91.01
2023-04-14T02:04:41.976Z,91.46
2023-04-14T02:07:11.120Z,91.71
2023-04-14T02:09:39.880Z,91.93
2023-04-14T02:12:09.090Z,91.98
2023-04-14T02:14:37.512Z,92.33
2023-04-14T02:17:07.592Z,92.66
2023-04-14T02:19:36.167Z,92.84
2023-04-14T02:22:05.028Z,93.15
2023-04-14T02:24:34.312Z,93.47
2023-04-14T02:27:18.355Z,93.56
2023-04-14T02:29:54.893Z,93.82
2023-04-14T02:32:25.263Z,93.68
2023-04-14T02:35:31.153Z,94.12
2023-04-14T02:38:09.014Z,94.20
2023-04-14T02:40:41.633Z,94.08
2023-04-14T02:43:20.976Z,94.12
2023-04-14T02:45:51.030Z,94.36
2023-04-14T02:48:22.134Z,94.58
2023-04-14T02:50:53.847Z,94.69
2023-04-14T02:53:26.092Z,94.63
2023-04-14T02:56:05.762Z,94.69
2023-04-14T02:58:39.857Z,95.06
2023-04-14T03:03:47.082Z,95.26
2023-04-14T03:06:17.428Z,95.26
2023-04-14T03:08:50.707Z,95.11
2023-04-14T03:11:28.443Z,95.20
2023-04-14T03:13:59.999Z,95.23
2023-04-14T03:16:41.464Z,95.42
2023-04-14T03:19:26.537Z,95.50
2023-04-14T03:22:00.651Z,95.60
2023-04-14T03:24:41.721Z,95.53
2023-04-14T03:27:35.316Z,95.73
2023-04-14T03:30:14.207Z,95.91
2023-04-14T03:32:45.334Z,95.84
2023-04-14T03:35:22.222Z,96.17
2023-04-14T03:37:50.981Z,96.28
2023-04-14T03:40:19.438Z,96.28
2023-04-14T03:42:50.200Z,96.55
2023-04-14T03:45:23.461Z,96.60
2023-04-14T03:47:55.824Z,96.83
2023-04-14T03:50:28.044Z,96.90
2023-04-14T03:53:01.340Z,96.94
2023-04-14T03:55:33.844Z,97.01
2023-04-14T03:58:24.683Z,96.97
2023-04-14T04:00:53.657Z,97.03
2023-04-14T04:03:29.983Z,97.17
2023-04-14T04:06:01.506Z,97.29
2023-04-14T04:08:32.915Z,97.63
2023-04-14T04:11:08.318Z,97.79
2023-04-14T04:13:37.851Z,97.90
2023-04-14T04:16:08.541Z,97.72
2023-04-14T04:18:47.141Z,98.10
2023-04-14T04:21:19.269Z,98.48
2023-04-14T04:23:53.891Z,98.29
2023-04-14T04:26:26.586Z,98.55
2023-04-14T04:29:00.875Z,98.68
2023-04-14T04:31:33.421Z,98.95
2023-04-14T04:34:03.744Z,98.55
2023-04-14T04:36:41.945Z,98.74
2023-04-14T04:39:11.206Z,98.93
2023-04-14T04:41:42.106Z,99.23
2023-04-14T04:44:11.873Z,99.25
2023-04-14T04:46:52.754Z,99.23
2023-04-14T04:49:28.173Z,98.99
2023-04-14T04:52:00.485Z,98.84
2023-04-14T04:54:33.514Z,99.07
2023-04-14T04:57:04.939Z,99.11
2023-04-14T04:59:37.320Z,99.05
2023-04-14T05:02:10.017Z,98.98
2023-04-14T05:04:41.126Z,98.88
2023-04-14T05:07:10.836Z,98.96
2023-04-14T05:09:43.627Z,98.93
2023-04-14T05:12:15.042Z,98.67
2023-04-14T05:14:45.843Z,98.89
2023-04-14T05:17:15.435Z,98.93
2023-04-14T05:19:44.823Z,98.95
2023-04-14T05:22:24.986Z,98.88
2023-04-14T05:25:09.647Z,98.52
2023-04-14T05:27:40.727Z,98.40
2023-04-14T05:30:48.810Z,98.49
2023-04-14T05:34:36.258Z,98.15
2023-04-14T05:37:20.679Z,98.33
2023-04-14T05:40:00.880Z,98.21
2023-04-14T05:46:01.344Z,98.34
2023-04-14T05:49:13.224Z,98.17
2023-04-14T05:52:25.025Z,97.78
2023-04-14T05:55:05.215Z,97.74
2023-04-14T05:58:04.242Z,98.08
2023-04-14T06:00:42.910Z,97.83
2023-04-14T06:03:34.578Z,97.94
2023-04-14T06:06:09.409Z,98.25
2023-04-14T06:08:41.699Z,98.33
2023-04-14T06:11:14.969Z,98.57
2023-04-14T06:13:48.972Z,98.34
2023-04-14T06:16:19.242Z,98.16
2023-04-14T06:18:52.612Z,97.78
2023-04-14T06:21:21.741Z,97.73
2023-04-14T06:23:54.982Z,97.91
2023-04-14T06:26:33.588Z,97.83
2023-04-14T06:29:03.609Z,97.96
2023-04-14T06:31:40.430Z,98.12
2023-04-14T06:34:12.480Z,98.41
2023-04-14T06:36:41.401Z,98.16
2023-04-14T06:39:16.077Z,98.13
2023-04-14T06:41:48.208Z,98.35
2023-04-14T06:44:19.808Z,98.09
2023-04-14T06:46:51.268Z,97.91
2023-04-14T06:49:26.264Z,97.91
2023-04-14T06:52:00.326Z,98.18
2023-04-14T06:54:33.966Z,98.31
2023-04-14T06:57:11.502Z,98.20
2023-04-14T06:59:42.869Z,98.23
2023-04-14T07:02:12.188Z,97.89
2023-04-14T07:04:43.751Z,97.62
2023-04-14T07:07:16.276Z,97.24
2023-04-14T07:09:51.649Z,96.99
2023-04-14T07:12:33.251Z,96.99
2023-04-14T07:15:30.511Z,96.96
2023-04-14T07:18:14.504Z,96.54
2023-04-14T07:20:59.801Z,96.12
2023-04-14T07:23:28.889Z,96.08
2023-04-14T07:26:00.980Z,95.52
2023-04-14T07:28:36.678Z,95.30
2023-04-14T07:31:19.255Z,95.06
2023-04-14T07:33:49.615Z,94.86
2023-04-14T07:36:19.466Z,94.27
